createdAt,value
2022-11-25T00:01:07.000Z,273.57
2022-11-25T00:02:33.000Z,273.54
2022-11-25T00:04:40.000Z,273.54
2022-11-25T00:06:06.000Z,273.53
2022-11-25T00:08:12.000Z,273.53
2022-11-25T00:09:39.000Z,273.52
2022-11-25T00:11:45.000Z,273.52
2022-11-25T00:14:36.000Z,273.5
2022-11-25T00:16:03.000Z,273.46
2022-11-25T00:18:09.000Z,273.45
2022-11-25T00:19:35.000Z,273.45
2022-11-25T00:21:42.000Z,273.46
2022-11-25T00:23:08.000Z,273.46
2022-11-25T00:25:14.000Z,273.46
2022-11-25T00:26:41.000Z,273.46
2022-11-25T00:28:47.000Z,273.46
2022-11-25T00:30:13.000Z,273.45
2022-11-25T00:32:20.000Z,273.42
2022-11-25T00:33:46.000Z,273.38
2022-11-25T00:35:52.000Z,273.36
2022-11-25T00:37:18.000Z,273.35
2022-11-25T00:39:23.000Z,273.35
2022-11-25T00:40:47.000Z,273.33
2022-11-25T00:42:52.000Z,273.3
2022-11-25T00:44:16.000Z,273.28
2022-11-25T00:46:20.000Z,273.24
2022-11-25T00:47:44.000Z,273.26
2022-11-25T00:49:48.000Z,273.24
2022-11-25T00:54:10.000Z,273.21
2022-11-25T00:56:16.000Z,273.21
2022-11-25T00:56:50.000Z,273.21
2022-11-25T00:58:14.000Z,273.24
2022-11-25T01:00:18.000Z,273.24
2022-11-25T01:01:42.000Z,273.26
2022-11-25T01:03:46.000Z,273.27
2022-11-25T01:05:11.000Z,273.27
2022-11-25T01:07:14.000Z,273.27
2022-11-25T01:08:39.000Z,273.26
2022-11-25T01:10:43.000Z,273.27
2022-11-25T01:12:08.000Z,273.27
2022-11-25T01:14:12.000Z,273.3
2022-11-25T01:15:37.000Z,273.31
2022-11-25T01:17:40.000Z,273.31
2022-11-25T01:19:05.000Z,273.3
2022-11-25T01:21:09.000Z,273.28
2022-11-25T01:22:34.000Z,273.28
2022-11-25T01:24:37.000Z,273.27
2022-11-25T01:26:02.000Z,273.26
2022-11-25T01:28:06.000Z,273.24
2022-11-25T01:29:30.000Z,273.21
2022-11-25T01:31:34.000Z,273.21
2022-11-25T01:34:12.000Z,273.19
2022-11-25T01:35:36.000Z,273.19
2022-11-25T01:37:40.000Z,273.19
2022-11-25T01:39:04.000Z,273.18
2022-11-25T01:41:08.000Z,273.16
2022-11-25T01:42:32.000Z,273.16
2022-11-25T01:44:36.000Z,273.15
2022-11-25T01:46:01.000Z,273.16
2022-11-25T01:48:04.000Z,273.15
2022-11-25T01:49:29.000Z,273.15
2022-11-25T01:51:32.000Z,273.15
2022-11-25T01:52:57.000Z,273.16
2022-11-25T01:55:00.000Z,273.15
2022-11-25T01:56:25.000Z,273.18
2022-11-25T01:58:28.000Z,273.18
2022-11-25T01:59:53.000Z,273.18
2022-11-25T02:01:56.000Z,273.16
2022-11-25T02:03:21.000Z,273.15
2022-11-25T02:05:24.000Z,273.15
2022-11-25T02:06:55.000Z,273.16
2022-11-25T02:08:58.000Z,273.15
2022-11-25T02:13:20.000Z,273.15
2022-11-25T02:15:18.000Z,273.16
2022-11-25T02:16:42.000Z,273.19
2022-11-25T02:18:46.000Z,273.21
2022-11-25T02:20:10.000Z,273.21
2022-11-25T02:22:14.000Z,273.21
2022-11-25T02:23:38.000Z,273.21
2022-11-25T02:25:42.000Z,273.23
2022-11-25T02:27:07.000Z,273.23
2022-11-25T02:29:10.000Z,273.21
2022-11-25T02:30:35.000Z,273.23
2022-11-25T02:32:38.000Z,273.21
2022-11-25T02:34:03.000Z,273.21
2022-11-25T02:36:06.000Z,273.21
2022-11-25T02:37:31.000Z,273.21
2022-11-25T02:39:34.000Z,273.23
2022-11-25T02:40:59.000Z,273.23
2022-11-25T02:43:03.000Z,273.23
2022-11-25T02:44:27.000Z,273.23
2022-11-25T02:46:31.000Z,273.24
2022-11-25T02:47:55.000Z,273.23
2022-11-25T02:49:59.000Z,273.23
2022-11-25T02:52:48.000Z,273.24
2022-11-25T02:54:13.000Z,273.24
2022-11-25T02:56:16.000Z,273.24
2022-11-25T02:57:41.000Z,273.27
2022-11-25T02:59:44.000Z,273.27
2022-11-25T03:01:09.000Z,273.27
2022-11-25T03:03:12.000Z,273.27
2022-11-25T03:04:37.000Z,273.28
2022-11-25T03:06:41.000Z,273.28
2022-11-25T03:08:06.000Z,273.3
2022-11-25T03:10:09.000Z,273.31
2022-11-25T03:11:34.000Z,273.3
2022-11-25T03:13:38.000Z,273.31
2022-11-25T03:15:03.000Z,273.35
2022-11-25T03:17:09.000Z,273.36
2022-11-25T03:18:35.000Z,273.35
2022-11-25T03:20:41.000Z,273.35
2022-11-25T03:22:08.000Z,273.35
2022-11-25T03:24:12.000Z,273.36
2022-11-25T03:25:39.000Z,273.35
2022-11-25T03:27:45.000Z,273.38
2022-11-25T03:30:36.000Z,273.36
2022-11-25T03:32:02.000Z,273.38
2022-11-25T03:34:15.000Z,273.38
2022-11-25T03:35:41.000Z,273.41
2022-11-25T03:37:47.000Z,273.42
2022-11-25T03:39:14.000Z,273.47
2022-11-25T03:41:20.000Z,273.49
2022-11-25T03:42:47.000Z,273.52
2022-11-25T03:44:53.000Z,273.54
2022-11-25T03:46:19.000Z,273.63
2022-11-25T03:48:25.000Z,273.63
2022-11-25T03:49:52.000Z,273.61
2022-11-25T03:51:58.000Z,273.63
2022-11-25T03:53:24.000Z,273.64
2022-11-25T03:55:31.000Z,273.63
2022-11-25T03:56:57.000Z,273.64
2022-11-25T03:59:03.000Z,273.64
2022-11-25T04:00:30.000Z,273.63
2022-11-25T04:02:36.000Z,273.64
2022-11-25T04:04:02.000Z,273.66
2022-11-25T04:06:08.000Z,273.73
2022-11-25T04:08:59.000Z,273.82
2022-11-25T04:10:26.000Z,273.85
2022-11-25T04:12:32.000Z,273.84
2022-11-25T04:13:58.000Z,273.88
2022-11-25T04:16:04.000Z,273.94
2022-11-25T04:17:31.000Z,273.94
2022-11-25T04:19:37.000Z,273.92
2022-11-25T04:21:03.000Z,273.93
2022-11-25T04:23:09.000Z,273.88
2022-11-25T04:24:36.000Z,273.84
2022-11-25T04:26:43.000Z,273.81
2022-11-25T04:28:09.000Z,273.81
2022-11-25T04:30:15.000Z,273.79
2022-11-25T04:31:42.000Z,273.81
2022-11-25T04:33:48.000Z,273.82
2022-11-25T04:35:19.000Z,273.81
2022-11-25T04:37:25.000Z,273.81
2022-11-25T04:38:51.000Z,273.79
2022-11-25T04:40:57.000Z,273.77
2022-11-25T04:42:24.000Z,273.75
2022-11-25T04:44:30.000Z,273.75
2022-11-25T04:47:21.000Z,273.75
2022-11-25T04:48:47.000Z,273.84
2022-11-25T04:50:53.000Z,273.85
2022-11-25T04:52:20.000Z,273.92
2022-11-25T04:54:26.000Z,273.92
2022-11-25T04:55:53.000Z,273.9
2022-11-25T04:57:59.000Z,273.9
2022-11-25T04:59:25.000Z,273.94
2022-11-25T05:01:31.000Z,273.93
2022-11-25T05:02:58.000Z,273.94
2022-11-25T05:05:04.000Z,273.96
2022-11-25T05:06:31.000Z,273.99
2022-11-25T05:08:37.000Z,273.96
2022-11-25T05:10:03.000Z,273.96
2022-11-25T05:12:09.000Z,273.93
2022-11-25T05:13:36.000Z,273.92
2022-11-25T05:15:42.000Z,273.93
2022-11-25T05:17:08.000Z,273.97
2022-11-25T05:19:15.000Z,273.97
2022-11-25T05:20:41.000Z,274.01
2022-11-25T05:22:47.000Z,274
2022-11-25T05:25:38.000Z,273.99
2022-11-25T05:27:05.000Z,273.99
2022-11-25T05:29:11.000Z,273.99
2022-11-25T05:30:38.000Z,274.03
2022-11-25T05:32:44.000Z,274.04
2022-11-25T05:34:10.000Z,274.06
2022-11-25T05:36:16.000Z,274.08
2022-11-25T05:37:43.000Z,274.07
2022-11-25T05:39:49.000Z,274.08
2022-11-25T05:41:15.000Z,274.17
2022-11-25T05:43:21.000Z,274.15
2022-11-25T05:44:48.000Z,274.15
2022-11-25T05:46:54.000Z,274.15
2022-11-25T05:48:21.000Z,274.17
2022-11-25T05:50:27.000Z,274.24
2022-11-25T05:51:53.000Z,274.22
2022-11-25T05:54:00.000Z,274.24
2022-11-25T05:55:26.000Z,274.25
2022-11-25T05:57:32.000Z,274.28
2022-11-25T05:58:59.000Z,274.29
2022-11-25T06:01:05.000Z,274.28
2022-11-25T06:03:56.000Z,274.25
2022-11-25T06:05:22.000Z,274.24
2022-11-25T06:07:29.000Z,274.22
2022-11-25T06:08:55.000Z,274.21
2022-11-25T06:11:01.000Z,274.24
2022-11-25T06:12:28.000Z,274.24
2022-11-25T06:14:34.000Z,274.31
2022-11-25T06:16:01.000Z,274.32
2022-11-25T06:18:13.000Z,274.32
2022-11-25T06:19:40.000Z,274.35
2022-11-25T06:21:46.000Z,274.38
2022-11-25T06:23:12.000Z,274.4
2022-11-25T06:25:18.000Z,274.4
2022-11-25T06:26:45.000Z,274.42
2022-11-25T06:28:51.000Z,274.43
2022-11-25T06:30:18.000Z,274.44
2022-11-25T06:32:24.000Z,274.5
2022-11-25T06:33:50.000Z,274.5
2022-11-25T06:35:56.000Z,274.49
2022-11-25T06:37:23.000Z,274.5
2022-11-25T06:39:29.000Z,274.51
2022-11-25T06:42:20.000Z,274.56
2022-11-25T06:43:47.000Z,274.64
2022-11-25T06:45:53.000Z,274.64
2022-11-25T06:47:19.000Z,274.72
2022-11-25T06:49:25.000Z,274.72
2022-11-25T06:50:52.000Z,274.69
2022-11-25T06:52:58.000Z,274.72
2022-11-25T06:54:24.000Z,274.73
2022-11-25T06:56:31.000Z,274.71
2022-11-25T06:57:57.000Z,274.73
2022-11-25T07:00:26.000Z,274.73
2022-11-25T07:01:52.000Z,274.73
2022-11-25T07:03:58.000Z,274.76
2022-11-25T07:05:25.000Z,274.73
2022-11-25T07:07:31.000Z,274.76
2022-11-25T07:08:58.000Z,274.76
2022-11-25T07:11:04.000Z,274.81
2022-11-25T07:12:30.000Z,274.77
2022-11-25T07:14:36.000Z,274.81
2022-11-25T07:16:03.000Z,274.9
2022-11-25T07:18:10.000Z,274.91
2022-11-25T07:21:01.000Z,274.99
2022-11-25T07:22:27.000Z,274.99
2022-11-25T07:24:33.000Z,275.02
2022-11-25T07:26:01.000Z,275.05
2022-11-25T07:28:07.000Z,275.12
2022-11-25T07:29:33.000Z,275.1
2022-11-25T07:32:09.000Z,275.1
2022-11-25T07:33:37.000Z,275.1
2022-11-25T07:35:43.000Z,275.1
2022-11-25T07:37:09.000Z,275.12
2022-11-25T07:39:16.000Z,275.1
2022-11-25T07:40:42.000Z,275.08
2022-11-25T07:42:48.000Z,275.08
2022-11-25T07:44:15.000Z,275.1
2022-11-25T07:46:21.000Z,275.12
2022-11-25T07:47:53.000Z,275.15
2022-11-25T07:49:59.000Z,275.28
2022-11-25T07:51:26.000Z,275.32
2022-11-25T07:53:32.000Z,275.3
2022-11-25T07:54:58.000Z,275.43
2022-11-25T07:57:04.000Z,275.53
2022-11-25T07:59:55.000Z,275.63
2022-11-25T08:01:22.000Z,275.64
2022-11-25T08:03:28.000Z,275.57
2022-11-25T08:04:55.000Z,275.55
2022-11-25T08:07:01.000Z,275.57
2022-11-25T08:08:27.000Z,275.57
2022-11-25T08:10:34.000Z,275.59
2022-11-25T08:12:00.000Z,275.59
2022-11-25T08:14:06.000Z,275.67
2022-11-25T08:15:33.000Z,275.71
2022-11-25T08:17:39.000Z,275.73
2022-11-25T08:19:05.000Z,275.82
2022-11-25T08:21:11.000Z,275.89
2022-11-25T08:22:38.000Z,276.03
2022-11-25T08:24:44.000Z,276.11
2022-11-25T08:26:10.000Z,276.26
2022-11-25T08:28:17.000Z,276.33
2022-11-25T08:29:43.000Z,276.36
2022-11-25T08:31:49.000Z,276.47
2022-11-25T08:33:16.000Z,276.51
2022-11-25T08:35:22.000Z,276.61
2022-11-25T08:38:13.000Z,276.81
2022-11-25T08:39:40.000Z,276.84
2022-11-25T08:41:59.000Z,276.87
2022-11-25T08:43:26.000Z,276.95
2022-11-25T08:45:35.000Z,277.02
2022-11-25T08:47:02.000Z,277.06
2022-11-25T08:49:08.000Z,277.13
2022-11-25T08:50:34.000Z,277.41
2022-11-25T08:52:40.000Z,277.52
2022-11-25T08:54:07.000Z,277.68
2022-11-25T08:56:13.000Z,277.64
2022-11-25T08:57:40.000Z,277.77
2022-11-25T08:59:46.000Z,277.89
2022-11-25T09:01:12.000Z,278.06
2022-11-25T09:03:18.000Z,278.14
2022-11-25T09:04:45.000Z,278.11
2022-11-25T09:06:51.000Z,278.25
2022-11-25T09:08:18.000Z,278.3
2022-11-25T09:10:24.000Z,278.25
2022-11-25T09:11:50.000Z,278.25
2022-11-25T09:13:56.000Z,278.3
2022-11-25T09:16:47.000Z,278.36
2022-11-25T09:18:14.000Z,278.43
2022-11-25T09:20:20.000Z,278.4
2022-11-25T09:21:47.000Z,278.47
2022-11-25T09:23:53.000Z,278.53
2022-11-25T09:25:20.000Z,278.54
2022-11-25T09:27:26.000Z,278.6
2022-11-25T09:28:52.000Z,278.68
2022-11-25T09:30:58.000Z,278.74
2022-11-25T09:32:25.000Z,278.78
2022-11-25T09:34:31.000Z,278.83
2022-11-25T09:35:57.000Z,278.88
2022-11-25T09:38:04.000Z,278.92
2022-11-25T09:39:30.000Z,278.94
2022-11-25T09:41:36.000Z,278.97
2022-11-25T09:43:03.000Z,278.99
2022-11-25T09:45:09.000Z,279.02
2022-11-25T09:46:35.000Z,279.02
2022-11-25T09:48:42.000Z,279.06
2022-11-25T09:50:08.000Z,279.06
2022-11-25T09:52:14.000Z,279.06
2022-11-25T09:55:05.000Z,279.03
2022-11-25T09:56:32.000Z,279.02
2022-11-25T09:58:38.000Z,279.02
2022-11-25T10:00:04.000Z,279.01
2022-11-25T10:02:10.000Z,278.99
2022-11-25T10:03:37.000Z,279.01
2022-11-25T10:05:43.000Z,279.03
2022-11-25T10:07:10.000Z,279.03
2022-11-25T10:09:16.000Z,279.03
2022-11-25T10:10:42.000Z,279.05
2022-11-25T10:12:48.000Z,279.08
2022-11-25T10:14:15.000Z,279.05
2022-11-25T10:16:21.000Z,279.05
2022-11-25T10:17:48.000Z,279.06
2022-11-25T10:19:54.000Z,279.09
2022-11-25T10:21:20.000Z,279.12
2022-11-25T10:23:26.000Z,279.12
2022-11-25T10:24:54.000Z,279.12
2022-11-25T10:27:01.000Z,279.15
2022-11-25T10:28:27.000Z,279.15
2022-11-25T10:30:33.000Z,279.17
2022-11-25T10:33:24.000Z,279.2
2022-11-25T10:34:51.000Z,279.23
2022-11-25T10:36:57.000Z,279.26
2022-11-25T10:38:23.000Z,279.24
2022-11-25T10:40:30.000Z,279.3
2022-11-25T10:41:56.000Z,279.33
2022-11-25T10:44:02.000Z,279.34
2022-11-25T10:45:29.000Z,279.37
2022-11-25T10:47:35.000Z,279.38
2022-11-25T10:49:01.000Z,279.4
2022-11-25T10:51:08.000Z,279.38
2022-11-25T10:52:34.000Z,279.41
2022-11-25T10:54:40.000Z,279.41
2022-11-25T10:56:08.000Z,279.41
2022-11-25T10:58:14.000Z,279.42
2022-11-25T10:59:40.000Z,279.44
2022-11-25T11:01:46.000Z,279.45
2022-11-25T11:03:13.000Z,279.47
2022-11-25T11:05:19.000Z,279.49
2022-11-25T11:06:46.000Z,279.51
2022-11-25T11:08:52.000Z,279.54
2022-11-25T11:11:43.000Z,279.56
2022-11-25T11:13:10.000Z,279.58
2022-11-25T11:15:16.000Z,279.59
2022-11-25T11:16:42.000Z,279.59
2022-11-25T11:18:48.000Z,279.59
2022-11-25T11:20:15.000Z,279.6
2022-11-25T11:22:21.000Z,279.63
2022-11-25T11:23:48.000Z,279.65
2022-11-25T11:25:54.000Z,279.66
2022-11-25T11:27:20.000Z,279.7
2022-11-25T11:29:26.000Z,279.69
2022-11-25T11:30:53.000Z,279.72
2022-11-25T11:32:59.000Z,279.74
2022-11-25T11:34:26.000Z,279.76
2022-11-25T11:36:32.000Z,279.81
2022-11-25T11:37:58.000Z,279.84
2022-11-25T11:40:04.000Z,279.86
2022-11-25T11:41:31.000Z,279.89
2022-11-25T11:43:37.000Z,279.92
2022-11-25T11:45:03.000Z,279.95
2022-11-25T11:47:09.000Z,279.93
2022-11-25T11:50:01.000Z,279.95
2022-11-25T11:51:27.000Z,279.93
2022-11-25T11:53:34.000Z,279.92
2022-11-25T11:55:00.000Z,279.91
2022-11-25T11:57:06.000Z,279.93
2022-11-25T11:58:33.000Z,279.89
2022-11-25T12:00:39.000Z,279.89
2022-11-25T12:02:05.000Z,279.89
2022-11-25T12:04:11.000Z,279.89
2022-11-25T12:05:38.000Z,279.89
2022-11-25T12:07:44.000Z,279.89
2022-11-25T12:09:11.000Z,279.91
2022-11-25T12:11:17.000Z,279.93
2022-11-25T12:12:43.000Z,279.96
2022-11-25T12:14:49.000Z,280.02
2022-11-25T12:16:16.000Z,280.05
2022-11-25T12:18:22.000Z,280.1
2022-11-25T12:19:48.000Z,280.13
2022-11-25T12:21:55.000Z,280.17
2022-11-25T12:23:21.000Z,280.18
2022-11-25T12:25:27.000Z,280.17
2022-11-25T12:28:18.000Z,280.16
2022-11-25T12:29:45.000Z,280.14
2022-11-25T12:31:51.000Z,280.16
2022-11-25T12:33:18.000Z,280.14
2022-11-25T12:35:24.000Z,280.17
2022-11-25T12:36:50.000Z,280.17
2022-11-25T12:38:56.000Z,280.12
2022-11-25T12:40:23.000Z,280.13
2022-11-25T12:42:29.000Z,280.12
2022-11-25T12:43:56.000Z,280.1
2022-11-25T12:46:02.000Z,280.09
2022-11-25T12:47:29.000Z,280.09
2022-11-25T12:49:35.000Z,280.09
2022-11-25T12:51:01.000Z,280.1
2022-11-25T12:53:07.000Z,280.09
2022-11-25T12:54:34.000Z,280.07
2022-11-25T12:56:41.000Z,280.06
2022-11-25T12:58:07.000Z,280.07
2022-11-25T13:00:13.000Z,280.09
2022-11-25T13:02:08.000Z,280.07
2022-11-25T13:05:47.000Z,280.09
2022-11-25T13:06:20.000Z,280.12
2022-11-25T13:09:05.000Z,280.13
2022-11-25T13:10:32.000Z,280.13
2022-11-25T13:12:38.000Z,280.13
2022-11-25T13:14:05.000Z,280.14
2022-11-25T13:16:12.000Z,280.17
2022-11-25T13:17:39.000Z,280.18
2022-11-25T13:19:46.000Z,280.2
2022-11-25T13:21:12.000Z,280.24
2022-11-25T13:23:18.000Z,280.25
2022-11-25T13:24:45.000Z,280.25
2022-11-25T13:26:51.000Z,280.27
2022-11-25T13:28:18.000Z,280.28
2022-11-25T13:30:24.000Z,280.27
2022-11-25T13:31:50.000Z,280.27
2022-11-25T13:34:04.000Z,280.25
2022-11-25T13:35:31.000Z,280.23
2022-11-25T13:37:37.000Z,280.21
2022-11-25T13:39:04.000Z,280.18
2022-11-25T13:41:10.000Z,280.16
2022-11-25T13:42:36.000Z,280.14
2022-11-25T13:44:42.000Z,280.14
2022-11-25T13:47:33.000Z,280.14
2022-11-25T13:49:00.000Z,280.14
2022-11-25T13:51:06.000Z,280.16
2022-11-25T13:52:38.000Z,280.17
2022-11-25T13:54:44.000Z,280.2
2022-11-25T13:56:10.000Z,280.24
2022-11-25T13:58:16.000Z,280.25
2022-11-25T13:59:43.000Z,280.27
2022-11-25T14:01:49.000Z,280.27
2022-11-25T14:03:16.000Z,280.25
2022-11-25T14:05:22.000Z,280.24
2022-11-25T14:06:48.000Z,280.25
2022-11-25T14:08:54.000Z,280.25
2022-11-25T14:10:21.000Z,280.24
2022-11-25T14:12:27.000Z,280.24
2022-11-25T14:13:54.000Z,280.23
2022-11-25T14:16:00.000Z,280.23
2022-11-25T14:17:33.000Z,280.2
2022-11-25T14:19:39.000Z,280.18
2022-11-25T14:21:18.000Z,280.16
2022-11-25T14:23:24.000Z,280.14
2022-11-25T14:26:16.000Z,280.1
2022-11-25T14:28:14.000Z,280.07
2022-11-25T14:30:20.000Z,280.05
2022-11-25T14:31:46.000Z,280.05
2022-11-25T14:33:53.000Z,280.03
2022-11-25T14:35:19.000Z,280.03
2022-11-25T14:37:25.000Z,280.03
2022-11-25T14:38:52.000Z,280
2022-11-25T14:40:58.000Z,279.99
2022-11-25T14:42:24.000Z,279.96
2022-11-25T14:44:31.000Z,279.95
2022-11-25T14:45:57.000Z,279.91
2022-11-25T14:48:04.000Z,279.88
2022-11-25T14:49:30.000Z,279.85
2022-11-25T14:52:01.000Z,279.81
2022-11-25T14:53:28.000Z,279.76
2022-11-25T14:55:34.000Z,279.72
2022-11-25T14:57:00.000Z,279.65
2022-11-25T14:59:06.000Z,279.58
2022-11-25T15:00:33.000Z,279.54
2022-11-25T15:02:39.000Z,279.49
2022-11-25T15:05:30.000Z,279.42
2022-11-25T15:06:57.000Z,279.37
2022-11-25T15:09:03.000Z,279.34
2022-11-25T15:10:29.000Z,279.27
2022-11-25T15:12:35.000Z,279.27
2022-11-25T15:14:08.000Z,279.22
2022-11-25T15:16:14.000Z,279.2
2022-11-25T15:17:40.000Z,279.2
2022-11-25T15:19:47.000Z,279.19
2022-11-25T15:21:13.000Z,279.17
2022-11-25T15:23:19.000Z,279.15
2022-11-25T15:24:46.000Z,279.15
2022-11-25T15:27:00.000Z,279.12
2022-11-25T15:28:26.000Z,279.08
2022-11-25T15:30:33.000Z,279.06
2022-11-25T15:31:59.000Z,279.05
2022-11-25T15:34:05.000Z,279.03
2022-11-25T15:35:32.000Z,278.99
2022-11-25T15:37:38.000Z,278.97
2022-11-25T15:39:05.000Z,278.92
2022-11-25T15:41:11.000Z,278.89
2022-11-25T15:44:02.000Z,278.86
2022-11-25T15:45:28.000Z,278.85
2022-11-25T15:47:34.000Z,278.85
2022-11-25T15:49:01.000Z,278.83
2022-11-25T15:51:07.000Z,278.83
2022-11-25T15:52:34.000Z,278.83
2022-11-25T15:54:40.000Z,278.85
2022-11-25T15:56:06.000Z,278.83
2022-11-25T15:58:12.000Z,278.83
2022-11-25T15:59:39.000Z,278.85
2022-11-25T16:01:45.000Z,278.83
2022-11-25T16:03:12.000Z,278.82
2022-11-25T16:05:18.000Z,278.82
2022-11-25T16:06:44.000Z,278.81
2022-11-25T16:08:50.000Z,278.81
2022-11-25T16:10:17.000Z,278.83
2022-11-25T16:12:23.000Z,278.83
2022-11-25T16:13:50.000Z,278.85
2022-11-25T16:15:56.000Z,278.86
2022-11-25T16:17:22.000Z,278.85
2022-11-25T16:19:28.000Z,278.85
2022-11-25T16:22:26.000Z,278.85
2022-11-25T16:23:52.000Z,278.83
2022-11-25T16:25:58.000Z,278.83
2022-11-25T16:27:25.000Z,278.85
2022-11-25T16:29:31.000Z,278.83
2022-11-25T16:30:58.000Z,278.81
2022-11-25T16:33:05.000Z,278.81
2022-11-25T16:34:31.000Z,278.79
2022-11-25T16:36:38.000Z,278.79
2022-11-25T16:38:04.000Z,278.79
2022-11-25T16:40:10.000Z,278.78
2022-11-25T16:41:37.000Z,278.76
2022-11-25T16:43:43.000Z,278.75
2022-11-25T16:45:10.000Z,278.75
2022-11-25T16:47:16.000Z,278.74
2022-11-25T16:48:42.000Z,278.69
2022-11-25T16:50:48.000Z,278.67
2022-11-25T16:52:15.000Z,278.62
2022-11-25T16:54:21.000Z,278.61
2022-11-25T16:55:48.000Z,278.58
2022-11-25T16:57:54.000Z,278.54
2022-11-25T17:00:45.000Z,278.47
2022-11-25T17:02:11.000Z,278.43
2022-11-25T17:04:18.000Z,278.39
2022-11-25T17:05:44.000Z,278.32
2022-11-25T17:07:50.000Z,278.26
2022-11-25T17:09:17.000Z,278.18
2022-11-25T17:11:23.000Z,278.16
2022-11-25T17:12:49.000Z,278.07
2022-11-25T17:14:55.000Z,278.02
2022-11-25T17:16:22.000Z,277.97
2022-11-25T17:18:28.000Z,277.93
2022-11-25T17:19:55.000Z,277.89
2022-11-25T17:22:01.000Z,277.86
2022-11-25T17:23:28.000Z,277.79
2022-11-25T17:25:34.000Z,277.75
2022-11-25T17:27:03.000Z,277.72
2022-11-25T17:29:09.000Z,277.68
2022-11-25T17:30:36.000Z,277.64
2022-11-25T17:32:42.000Z,277.61
2022-11-25T17:34:08.000Z,277.61
2022-11-25T17:36:15.000Z,277.63
2022-11-25T17:39:06.000Z,277.64
2022-11-25T17:40:32.000Z,277.65
2022-11-25T17:42:38.000Z,277.67
2022-11-25T17:44:05.000Z,277.67
2022-11-25T17:46:11.000Z,277.68
2022-11-25T17:47:37.000Z,277.68
2022-11-25T17:49:44.000Z,277.68
2022-11-25T17:51:10.000Z,277.67
2022-11-25T17:53:16.000Z,277.67
2022-11-25T17:54:43.000Z,277.67
2022-11-25T17:56:49.000Z,277.65
2022-11-25T17:58:18.000Z,277.63
2022-11-25T18:00:25.000Z,277.63
2022-11-25T18:01:51.000Z,277.61
2022-11-25T18:03:57.000Z,277.61
2022-11-25T18:05:24.000Z,277.59
2022-11-25T18:07:30.000Z,277.6
2022-11-25T18:08:57.000Z,277.59
2022-11-25T18:11:03.000Z,277.59
2022-11-25T18:12:29.000Z,277.6
2022-11-25T18:14:36.000Z,277.59
2022-11-25T18:17:28.000Z,277.6
2022-11-25T18:18:54.000Z,277.59
2022-11-25T18:21:00.000Z,277.6
2022-11-25T18:22:27.000Z,277.6
2022-11-25T18:24:33.000Z,277.6
2022-11-25T18:26:00.000Z,277.6
2022-11-25T18:28:06.000Z,277.6
2022-11-25T18:29:32.000Z,277.59
2022-11-25T18:31:38.000Z,277.6
2022-11-25T18:33:05.000Z,277.59
2022-11-25T18:35:11.000Z,277.56
2022-11-25T18:36:37.000Z,277.6
2022-11-25T18:38:44.000Z,277.6
2022-11-25T18:40:10.000Z,277.59
2022-11-25T18:42:16.000Z,277.65
2022-11-25T18:43:43.000Z,277.7
2022-11-25T18:45:49.000Z,277.72
2022-11-25T18:47:16.000Z,277.85
2022-11-25T18:49:22.000Z,277.95
2022-11-25T18:50:48.000Z,278.07
2022-11-25T18:52:54.000Z,278.2
2022-11-25T18:55:46.000Z,278.33
2022-11-25T18:57:12.000Z,278.37
2022-11-25T18:59:18.000Z,278.4
2022-11-25T19:00:45.000Z,278.4
2022-11-25T19:02:51.000Z,278.43
2022-11-25T19:04:17.000Z,278.4
2022-11-25T19:06:23.000Z,278.4
2022-11-25T19:07:50.000Z,278.42
2022-11-25T19:09:56.000Z,278.44
2022-11-25T19:11:22.000Z,278.42
2022-11-25T19:13:29.000Z,278.37
2022-11-25T19:14:55.000Z,278.35
2022-11-25T19:17:01.000Z,278.32
2022-11-25T19:18:28.000Z,278.28
2022-11-25T19:20:34.000Z,278.3
2022-11-25T19:22:01.000Z,278.32
2022-11-25T19:24:07.000Z,278.29
2022-11-25T19:25:33.000Z,278.29
2022-11-25T19:27:39.000Z,278.24
2022-11-25T19:29:06.000Z,278.14
2022-11-25T19:31:12.000Z,278.07
2022-11-25T19:34:03.000Z,278
2022-11-25T19:35:29.000Z,277.97
2022-11-25T19:37:35.000Z,277.92
2022-11-25T19:39:02.000Z,277.88
2022-11-25T19:41:08.000Z,277.84
2022-11-25T19:42:35.000Z,277.79
2022-11-25T19:44:41.000Z,277.75
2022-11-25T19:46:07.000Z,277.74
2022-11-25T19:48:14.000Z,277.72
2022-11-25T19:49:40.000Z,277.72
2022-11-25T19:51:46.000Z,277.72
2022-11-25T19:53:13.000Z,277.72
2022-11-25T19:55:19.000Z,277.72
2022-11-25T19:56:45.000Z,277.74
2022-11-25T19:58:51.000Z,277.79
2022-11-25T20:00:18.000Z,277.79
2022-11-25T20:02:24.000Z,277.78
2022-11-25T20:03:51.000Z,277.77
2022-11-25T20:05:57.000Z,277.78
2022-11-25T20:07:23.000Z,277.81
2022-11-25T20:09:29.000Z,277.81
2022-11-25T20:12:21.000Z,277.82
2022-11-25T20:13:47.000Z,277.81
2022-11-25T20:15:53.000Z,277.81
2022-11-25T20:17:20.000Z,277.81
2022-11-25T20:19:26.000Z,277.81
2022-11-25T20:20:52.000Z,277.88
2022-11-25T20:22:58.000Z,278.06
2022-11-25T20:24:25.000Z,278.17
2022-11-25T20:26:31.000Z,278.25
2022-11-25T20:27:58.000Z,278.28
2022-11-25T20:30:04.000Z,278.33
2022-11-25T20:31:30.000Z,278.43
2022-11-25T20:33:37.000Z,278.53
2022-11-25T20:35:03.000Z,278.56
2022-11-25T20:37:09.000Z,278.61
2022-11-25T20:38:36.000Z,278.64
2022-11-25T20:40:42.000Z,278.64
2022-11-25T20:42:08.000Z,278.62
2022-11-25T20:44:14.000Z,278.65
2022-11-25T20:45:41.000Z,278.65
2022-11-25T20:47:47.000Z,278.64
2022-11-25T20:50:39.000Z,278.57
2022-11-25T20:52:05.000Z,278.5
2022-11-25T20:54:11.000Z,278.4
2022-11-25T20:55:38.000Z,278.29
2022-11-25T20:57:44.000Z,278.22
2022-11-25T20:59:10.000Z,278.13
2022-11-25T21:01:16.000Z,278.06
2022-11-25T21:02:43.000Z,278.02
2022-11-25T21:04:49.000Z,277.96
2022-11-25T21:06:16.000Z,277.92
2022-11-25T21:08:22.000Z,277.89
2022-11-25T21:09:48.000Z,277.85
2022-11-25T21:11:55.000Z,277.84
2022-11-25T21:13:21.000Z,277.79
2022-11-25T21:15:27.000Z,277.77
2022-11-25T21:16:54.000Z,277.74
2022-11-25T21:19:00.000Z,277.7
2022-11-25T21:20:26.000Z,277.64
2022-11-25T21:22:32.000Z,277.6
2022-11-25T21:24:06.000Z,277.52
2022-11-25T21:26:12.000Z,277.46
2022-11-25T21:29:03.000Z,277.4
2022-11-25T21:30:29.000Z,277.34
2022-11-25T21:32:35.000Z,277.33
2022-11-25T21:34:02.000Z,277.29
2022-11-25T21:36:08.000Z,277.27
2022-11-25T21:37:34.000Z,277.2
2022-11-25T21:39:41.000Z,277.18
2022-11-25T21:41:07.000Z,277.15
2022-11-25T21:43:13.000Z,277.12
2022-11-25T21:44:47.000Z,277.08
2022-11-25T21:46:53.000Z,277.06
2022-11-25T21:48:20.000Z,277.06
2022-11-25T21:50:26.000Z,277.06
2022-11-25T21:51:52.000Z,277.08
2022-11-25T21:53:58.000Z,277.11
2022-11-25T21:55:25.000Z,277.11
2022-11-25T21:57:31.000Z,277.11
2022-11-25T21:58:57.000Z,277.11
2022-11-25T22:01:04.000Z,277.12
2022-11-25T22:02:30.000Z,277.13
2022-11-25T22:04:36.000Z,277.13
2022-11-25T22:07:28.000Z,277.15
2022-11-25T22:08:57.000Z,277.15
2022-11-25T22:11:03.000Z,277.16
2022-11-25T22:12:30.000Z,277.16
2022-11-25T22:14:36.000Z,277.16
2022-11-25T22:16:03.000Z,277.16
2022-11-25T22:18:09.000Z,277.16
2022-11-25T22:19:35.000Z,277.18
2022-11-25T22:21:42.000Z,277.19
2022-11-25T22:23:08.000Z,277.19
2022-11-25T22:25:14.000Z,277.19
2022-11-25T22:26:41.000Z,277.22
2022-11-25T22:28:47.000Z,277.22
2022-11-25T22:30:13.000Z,277.23
2022-11-25T22:32:19.000Z,277.23
2022-11-25T22:33:46.000Z,277.22
2022-11-25T22:35:52.000Z,277.25
2022-11-25T22:37:18.000Z,277.23
2022-11-25T22:39:25.000Z,277.26
2022-11-25T22:40:51.000Z,277.27
2022-11-25T22:42:57.000Z,277.29
2022-11-25T22:45:48.000Z,277.29
2022-11-25T22:47:15.000Z,277.3
2022-11-25T22:49:21.000Z,277.27
2022-11-25T22:50:48.000Z,277.27
2022-11-25T22:52:54.000Z,277.26